Terminal Aerodrome Forecast
Issued by NWS Duluth, MN

Home | Current Version | Previous Version | Text Only | Print | Product List | Glossary On
Versions: 1 2 3 4 5 6 7 8 9 10 11 12 13 14 15 16 17 18 19 20 21 22 23 24 25 26 27 28 29 30
000
FTUS43 KDLH 300500
TAFDLH
TAF
KDLH 300535Z 3006/3106 29007KT P6SM FEW050
     FM301800 21007KT P6SM VCSH BKN060
     FM302000 13005KT P6SM VCSH SCT020 OVC050
      TEMPO 3020/3024 5SM -SHRA BKN025 OVC040
     FM310000 07005KT 6SM -RA BR OVC018 PROB30 3100/3105 5SM -RA
      OVC010=

USA.gov is the U.S. government's official web portal to all federal, state and local government web resources and services.